Time;durP1;ratioP1;P1;durP2;ratioP2;P2;SDS_P1;SDS_P2;PMS_P1;PMS_P2;Temp;Humidity;BMP_temperature;BMP_pressure;BME280_temperature;BME280_humidity;BME280_pressure;Samples;Min_cycle;Max_cycle;Signal;HPM_P1;HPM_P2
2023/10/14 00:01:34;;;;;;;5.57;3.27;;;23.20;58.10;;;;;;5005081;28;20482;-72
2023/10/14 00:04:04;;;;;;;3.70;3.13;;;23.30;58.20;;;;;;5005911;28;20435;-71
2023/10/14 00:06:32;;;;;;;5.33;3.87;;;23.40;58.50;;;;;;5006179;28;20419;-70
2023/10/14 00:08:58;;;;;;;5.40;3.83;;;23.40;58.60;;;;;;5006297;28;20913;-70
2023/10/14 00:11:43;;;;;;;3.53;3.23;;;23.40;59.40;;;;;;5004223;28;20445;-71
2023/10/14 00:14:14;;;;;;;4.00;3.47;;;23.40;61.40;;;;;;5004311;28;20187;-71
2023/10/14 00:16:42;;;;;;;4.10;3.70;;;23.20;61.70;;;;;;5005878;28;20450;-70
2023/10/14 00:19:09;;;;;;;5.60;4.27;;;23.00;62.20;;;;;;5006199;28;20411;-71
2023/10/14 00:21:36;;;;;;;6.80;4.40;;;23.00;62.70;;;;;;5005623;28;20537;-71
2023/10/14 00:24:05;;;;;;;4.60;3.10;;;22.90;64.00;;;;;;4988523;28;20514;-69
2023/10/14 00:26:31;;;;;;;7.67;4.37;;;22.80;65.00;;;;;;5005881;28;20419;-71
2023/10/14 00:29:11;;;;;;;9.50;4.17;;;22.80;65.10;;;;;;5005881;28;20423;-71
2023/10/14 00:31:37;;;;;;;5.83;4.93;;;22.90;66.30;;;;;;5004702;28;20417;-70
2023/10/14 00:34:03;;;;;;;5.60;4.90;;;22.90;67.50;;;;;;5005565;28;20435;-69
2023/10/14 00:36:31;;;;;;;6.93;5.10;;;22.80;69.60;;;;;;5005771;28;20290;-71
2023/10/14 00:39:12;;;;;;;9.53;4.90;;;22.80;71.50;;;;;;5005921;28;20259;-72
2023/10/14 00:41:39;;;;;;;7.10;4.90;;;22.70;73.00;;;;;;5005402;28;20819;-71
2023/10/14 00:44:05;;;;;;;7.63;4.93;;;22.80;74.00;;;;;;5003617;28;20423;-71
2023/10/14 00:46:33;;;;;;;7.47;5.20;;;22.70;74.70;;;;;;5005082;28;20433;-71
2023/10/14 00:49:01;;;;;;;6.77;5.00;;;22.70;75.50;;;;;;5003851;28;20184;-72
2023/10/14 00:51:28;;;;;;;7.20;5.40;;;22.80;75.70;;;;;;5004057;28;20427;-71
2023/10/14 00:54:01;;;;;;;7.53;4.60;;;22.80;75.50;;;;;;4971129;28;20939;-70
2023/10/14 00:56:27;;;;;;;6.43;4.50;;;22.60;75.80;;;;;;5005186;28;20631;-72
2023/10/14 00:58:59;;;;;;;6.20;4.83;;;22.70;76.00;;;;;;5003423;28;20880;-72
2023/10/14 01:01:31;;;;;;;8.77;6.00;;;22.70;77.20;;;;;;5004497;28;20211;-71
2023/10/14 01:04:17;;;;;;;6.20;5.10;;;22.60;79.40;;;;;;5003510;28;20472;-72
2023/10/14 01:12:27;;;;;;;6.97;6.33;;;22.20;90.20;;;;;;5005131;28;20438;-71
2023/10/14 01:14:53;;;;;;;8.70;6.40;;;22.20;92.00;;;;;;4989932;28;20411;-72
2023/10/14 01:17:29;;;;;;;9.80;6.80;;;21.90;93.80;;;;;;5003189;28;20930;-69
2023/10/14 01:20:11;;;;;;;10.00;7.37;;;22.00;95.00;;;;;;5003681;28;20407;-69
2023/10/14 01:22:38;;;;;;;11.37;6.83;;;21.90;96.90;;;;;;5005075;28;20521;-72
2023/10/14 01:25:06;;;;;;;8.43;6.47;;;21.90;98.20;;;;;;5004564;28;20852;-70
2023/10/14 01:27:34;;;;;;;10.07;6.70;;;21.80;99.30;;;;;;4986889;28;20520;-72
2023/10/14 01:30:00;;;;;;;6.73;6.13;;;21.70;99.90;;;;;;5002958;28;20421;-71
2023/10/14 01:35:12;;;;;;;6.73;6.00;;;21.60;99.90;;;;;;5004625;28;20179;-72
2023/10/14 01:37:39;;;;;;;7.50;6.80;;;21.50;99.90;;;;;;5002936;28;20831;-71
2023/10/14 01:42:42;;;;;;;8.57;7.67;;;21.50;99.90;;;;;;5004693;28;21035;-72
2023/10/14 01:45:08;;;;;;;7.57;6.13;;;21.40;99.90;;;;;;5002646;28;20518;-72
2023/10/14 01:47:42;;;;;;;8.63;7.20;;;21.50;99.90;;;;;;5002780;28;20234;-71
2023/10/14 01:50:12;;;;;;;8.00;6.73;;;21.30;99.90;;;;;;5004189;28;20172;-71
2023/10/14 01:52:38;;;;;;;7.27;6.57;;;21.50;99.90;;;;;;5002711;28;20798;-69
2023/10/14 01:55:05;;;;;;;7.40;6.50;;;21.40;99.90;;;;;;5003106;28;20437;-71
2023/10/14 01:57:31;;;;;;;8.83;7.10;;;21.40;99.90;;;;;;4986664;28;20203;-70
2023/10/14 01:59:57;;;;;;;7.43;6.27;;;21.30;99.90;;;;;;5003145;28;20422;-70
2023/10/14 02:02:22;;;;;;;6.60;6.00;;;21.30;99.90;;;;;;5002593;28;20961;-71
2023/10/14 02:04:55;;;;;;;7.87;6.03;;;21.20;99.90;;;;;;5002927;28;20192;-70
2023/10/14 02:07:21;;;;;;;8.57;6.43;;;21.10;99.90;;;;;;5004468;28;20249;-70
2023/10/14 02:09:55;;;;;;;9.47;7.03;;;21.10;99.90;;;;;;5003996;28;20426;-70
2023/10/14 02:12:20;;;;;;;7.43;6.50;;;21.00;99.90;;;;;;5003385;28;20483;-70
2023/10/14 02:14:57;;;;;;;8.03;7.23;;;21.00;99.90;;;;;;5002406;28;20843;-71
2023/10/14 02:17:24;;;;;;;7.83;6.30;;;21.00;99.90;;;;;;5004244;28;20543;-73
2023/10/14 02:19:51;;;;;;;7.87;7.07;;;21.10;99.90;;;;;;5004186;28;21344;-70
2023/10/14 02:22:21;;;;;;;9.03;6.57;;;21.00;99.90;;;;;;5004002;28;20418;-71
2023/10/14 02:24:48;;;;;;;8.10;6.33;;;20.90;99.90;;;;;;5002501;28;20415;-72
2023/10/14 02:27:14;;;;;;;7.57;6.60;;;21.00;99.90;;;;;;5003473;28;20422;-71
2023/10/14 02:29:46;;;;;;;8.60;7.40;;;20.90;99.90;;;;;;5003853;28;20778;-70
2023/10/14 02:32:14;;;;;;;8.00;7.20;;;20.90;99.90;;;;;;5001994;28;20506;-72
2023/10/14 02:34:44;;;;;;;8.17;7.30;;;20.80;99.90;;;;;;5002138;28;20422;-71
2023/10/14 02:37:13;;;;;;;9.17;7.17;;;20.90;99.90;;;;;;4986690;28;20459;-72
2023/10/14 02:39:38;;;;;;;10.30;6.80;;;21.00;99.90;;;;;;5003757;28;20494;-72
2023/10/14 02:44:32;;;;;;;8.10;7.27;;;20.90;99.90;;;;;;4986197;28;20179;-69
2023/10/14 02:47:08;;;;;;;7.30;6.53;;;20.90;99.90;;;;;;5001741;28;20203;-70
2023/10/14 02:49:41;;;;;;;8.30;7.20;;;20.90;99.90;;;;;;5002024;28;20422;-72
2023/10/14 02:52:12;;;;;;;8.10;6.73;;;20.90;99.90;;;;;;5001955;28;20458;-71
2023/10/14 02:54:53;;;;;;;8.90;7.50;;;20.90;99.90;;;;;;5003696;28;20473;-71
2023/10/14 02:59:48;;;;;;;8.70;7.07;;;21.00;99.90;;;;;;5003533;28;20423;-69
2023/10/14 03:02:24;;;;;;;10.17;7.20;;;21.00;99.90;;;;;;5001817;28;20553;-70
2023/10/14 03:04:55;;;;;;;7.97;7.20;;;21.00;99.90;;;;;;5002018;28;20554;-71
2023/10/14 03:09:58;;;;;;;9.90;6.60;;;21.10;99.90;;;;;;5003124;28;20834;-70
2023/10/14 03:12:27;;;;;;;7.97;7.17;;;21.10;99.90;;;;;;5001509;28;20446;-71
2023/10/14 03:14:54;;;;;;;8.30;6.73;;;21.10;99.90;;;;;;4985207;28;20865;-70
2023/10/14 03:17:40;;;;;;;7.63;6.50;;;21.20;99.90;;;;;;5001179;28;21615;-68
2023/10/14 03:20:58;;;;;;;7.70;6.90;;;21.10;99.90;;;;;;5002924;28;20686;-72
2023/10/14 03:22:59;;;;;;;9.30;7.30;;;21.10;99.90;;;;;;4995206;28;20802;-70
2023/10/14 03:25:25;;;;;;;10.80;7.53;;;21.20;99.90;;;;;;5005889;28;20468;-69
2023/10/14 03:30:37;;;;;;;7.73;6.63;;;21.20;99.90;;;;;;5006731;28;20403;-71
2023/10/14 03:33:09;;;;;;;8.50;6.83;;;21.30;99.90;;;;;;5005758;28;20458;-72
2023/10/14 03:35:36;;;;;;;11.40;6.90;;;21.20;99.90;;;;;;5006103;28;20537;-71
2023/10/14 03:38:11;;;;;;;9.93;7.30;;;21.30;99.90;;;;;;4989138;28;20462;-71
2023/10/14 03:43:15;;;;;;;14.77;7.60;;;21.10;99.90;;;;;;5007433;28;21184;-73
2023/10/14 03:46:03;;;;;;;9.90;7.47;;;21.00;99.90;;;;;;5005974;28;20552;-72
2023/10/14 03:48:35;;;;;;;8.47;6.80;;;21.10;99.90;;;;;;4992200;28;20427;-72
2023/10/14 03:51:05;;;;;;;11.80;7.80;;;21.00;99.90;;;;;;5007456;28;20425;-72
2023/10/14 03:53:32;;;;;;;9.20;6.90;;;21.20;99.90;;;;;;5007007;28;20454;-70
2023/10/14 03:56:00;;;;;;;7.43;6.47;;;21.10;99.90;;;;;;5005253;28;20785;-73
2023/10/14 03:58:26;;;;;;;8.53;7.43;;;21.20;99.90;;;;;;5005183;28;20536;-72
2023/10/14 04:00:52;;;;;;;8.00;7.20;;;21.30;99.90;;;;;;5006651;28;20406;-72
2023/10/14 04:06:02;;;;;;;8.90;7.47;;;21.30;99.90;;;;;;5005678;28;20394;-72
2023/10/14 04:08:31;;;;;;;10.23;7.50;;;21.30;99.90;;;;;;5004949;28;20418;-73
2023/10/14 04:11:12;;;;;;;9.57;7.30;;;21.10;99.90;;;;;;5006297;28;20575;-70
2023/10/14 04:13:40;;;;;;;11.07;7.13;;;21.00;99.90;;;;;;5006525;28;20829;-71
2023/10/14 04:16:12;;;;;;;8.83;7.77;;;21.00;99.90;;;;;;5007845;28;20473;-72
2023/10/14 04:18:43;;;;;;;8.00;7.20;;;21.10;99.90;;;;;;5007880;28;20501;-70
2023/10/14 04:23:38;;;;;;;8.37;6.13;;;21.20;99.90;;;;;;5006106;28;20718;-71
2023/10/14 04:26:11;;;;;;;8.23;7.43;;;21.10;99.90;;;;;;5004333;28;20238;-71
2023/10/14 04:28:53;;;;;;;8.80;7.90;;;21.10;99.90;;;;;;5004402;28;20414;-68
2023/10/14 04:31:38;;;;;;;12.83;7.03;;;21.10;99.90;;;;;;5004478;28;20410;-71
2023/10/14 04:34:05;;;;;;;9.67;7.13;;;21.10;99.90;;;;;;4989897;28;20443;-71
2023/10/14 04:36:36;;;;;;;8.73;6.63;;;21.00;99.90;;;;;;5005247;28;21096;-71
2023/10/14 04:39:15;;;;;;;8.60;6.70;;;21.00;99.90;;;;;;5004059;28;20869;-70
2023/10/14 04:44:37;;;;;;;9.70;6.80;;;20.90;99.90;;;;;;4991478;28;20418;-70
2023/10/14 04:47:04;;;;;;;6.53;5.93;;;20.60;99.90;;;;;;5006355;28;20464;-69
2023/10/14 04:49:37;;;;;;;8.97;6.20;;;20.20;99.90;;;;;;5005168;28;20427;-70
2023/10/14 04:52:06;;;;;;;8.70;6.70;;;19.70;99.90;;;;;;5003434;28;20431;-71
2023/10/14 04:54:35;;;;;;;6.43;5.73;;;19.60;99.90;;;;;;5005120;28;20649;-71
2023/10/14 04:57:19;;;;;;;7.60;6.13;;;19.80;99.90;;;;;;5003787;28;20746;-72
2023/10/14 04:59:45;;;;;;;9.60;7.50;;;19.90;99.90;;;;;;5005565;28;20434;-71
2023/10/14 05:02:15;;;;;;;11.63;7.10;;;19.90;99.90;;;;;;5005046;28;21009;-70
2023/10/14 05:04:41;;;;;;;8.73;7.07;;;19.90;99.90;;;;;;5003321;28;20203;-71
2023/10/14 05:07:11;;;;;;;9.33;7.10;;;19.90;99.90;;;;;;5003649;28;20521;-70
2023/10/14 05:09:39;;;;;;;8.80;7.13;;;19.80;99.90;;;;;;5004140;28;20415;-69
2023/10/14 05:12:08;;;;;;;8.63;6.80;;;19.90;99.90;;;;;;4987664;28;20430;-72
2023/10/14 05:14:36;;;;;;;9.90;7.00;;;20.10;99.90;;;;;;4971436;28;20418;-72
2023/10/14 05:17:14;;;;;;;9.43;6.50;;;20.10;99.90;;;;;;5004711;28;20462;-71
2023/10/14 05:19:43;;;;;;;7.57;6.80;;;20.20;99.90;;;;;;5004899;28;20839;-71
2023/10/14 05:22:19;;;;;;;6.90;6.30;;;20.20;99.90;;;;;;5003041;28;20962;-70
2023/10/14 05:24:49;;;;;;;8.17;7.30;;;20.20;99.90;;;;;;4987431;28;20936;-71
2023/10/14 05:27:19;;;;;;;7.90;6.80;;;20.20;99.90;;;;;;5003426;28;20429;-71
2023/10/14 05:29:51;;;;;;;8.33;6.40;;;20.30;99.90;;;;;;5003166;28;20431;-71
2023/10/14 05:32:30;;;;;;;11.63;7.60;;;20.20;99.90;;;;;;5003339;28;20475;-71
2023/10/14 05:34:59;;;;;;;7.97;6.67;;;20.10;99.90;;;;;;5003406;28;20885;-72
2023/10/14 05:37:25;;;;;;;8.70;6.60;;;20.10;99.90;;;;;;5003270;28;20470;-72
2023/10/14 05:39:54;;;;;;;7.90;6.83;;;20.00;99.90;;;;;;5002948;28;20945;-70
2023/10/14 05:42:24;;;;;;;7.20;6.50;;;20.10;99.90;;;;;;4986550;28;20450;-72
2023/10/14 05:44:57;;;;;;;7.50;6.00;;;20.10;99.90;;;;;;4986741;28;20622;-72
2023/10/14 05:47:27;;;;;;;7.80;6.30;;;20.20;99.90;;;;;;5003104;28;20414;-71
2023/10/14 05:49:53;;;;;;;9.00;7.17;;;20.20;99.90;;;;;;5002926;28;20419;-71
2023/10/14 05:52:24;;;;;;;9.07;7.80;;;20.20;99.90;;;;;;5002284;28;20478;-71
2023/10/14 05:54:50;;;;;;;9.23;7.80;;;20.10;99.90;;;;;;5002550;28;20613;-71
2023/10/14 05:57:17;;;;;;;9.70;7.60;;;20.00;99.90;;;;;;5002580;28;20465;-71
2023/10/14 05:59:43;;;;;;;6.60;5.87;;;20.10;99.90;;;;;;5002493;28;20419;-71
2023/10/14 06:02:12;;;;;;;8.10;6.27;;;20.20;99.90;;;;;;5002386;28;20438;-72
2023/10/14 06:04:41;;;;;;;10.10;6.77;;;20.10;99.90;;;;;;5004578;28;20414;-72
2023/10/14 06:07:08;;;;;;;8.90;7.10;;;20.10;99.90;;;;;;5004357;28;20422;-72
2023/10/14 06:09:35;;;;;;;7.60;6.00;;;20.00;99.90;;;;;;4986706;28;20423;-72
2023/10/14 06:12:05;;;;;;;9.47;7.20;;;19.90;99.90;;;;;;4986379;28;20920;-72
2023/10/14 06:14:32;;;;;;;8.93;7.10;;;20.00;99.90;;;;;;5002440;28;20427;-71
2023/10/14 06:16:58;;;;;;;8.10;5.80;;;20.00;99.90;;;;;;5003949;28;20486;-71
2023/10/14 06:19:24;;;;;;;8.30;6.47;;;20.00;99.90;;;;;;5003733;28;20424;-71
2023/10/14 06:21:49;;;;;;;9.10;5.97;;;20.10;99.90;;;;;;4986321;28;20175;-72
2023/10/14 06:24:15;;;;;;;8.90;5.60;;;20.20;99.90;;;;;;5002234;28;20419;-72
2023/10/14 06:26:41;;;;;;;7.80;6.23;;;20.30;99.90;;;;;;5002557;28;20219;-72
2023/10/14 06:29:09;;;;;;;9.60;6.50;;;20.30;99.90;;;;;;5002773;28;20427;-70
2023/10/14 06:31:37;;;;;;;9.63;5.63;;;20.40;99.90;;;;;;5001974;28;20669;-72
2023/10/14 06:34:08;;;;;;;8.23;6.20;;;20.40;99.90;;;;;;5001969;28;20470;-71
2023/10/14 06:36:37;;;;;;;7.47;5.73;;;20.50;99.90;;;;;;4986575;28;20466;-72
2023/10/14 06:39:15;;;;;;;8.37;5.63;;;20.60;99.90;;;;;;5003440;28;20469;-71
2023/10/14 06:41:43;;;;;;;7.13;6.30;;;20.50;99.90;;;;;;5003715;28;20484;-72
2023/10/14 06:44:15;;;;;;;6.83;5.90;;;20.60;99.90;;;;;;5004322;28;20450;-72
2023/10/14 06:46:44;;;;;;;7.30;5.50;;;20.60;99.90;;;;;;5002423;28;20414;-72
2023/10/14 06:49:13;;;;;;;8.00;5.20;;;20.70;99.90;;;;;;5001770;28;20856;-71
2023/10/14 06:51:42;;;;;;;8.73;6.10;;;20.70;99.90;;;;;;5002327;28;20792;-72
2023/10/14 06:54:09;;;;;;;7.10;5.90;;;20.70;99.90;;;;;;4969828;28;20466;-72
2023/10/14 06:56:36;;;;;;;8.47;5.37;;;20.70;99.90;;;;;;5001858;28;20470;-72
2023/10/14 06:59:01;;;;;;;24.27;14.97;;;20.70;99.90;;;;;;5001586;28;20414;-72
2023/10/14 07:01:28;;;;;;;10.83;9.07;;;20.50;99.90;;;;;;4985179;28;20411;-70
2023/10/14 07:03:54;;;;;;;12.13;8.83;;;20.70;99.90;;;;;;5002829;28;20215;-72
2023/10/14 07:06:21;;;;;;;13.90;10.27;;;20.70;99.90;;;;;;5001738;28;20407;-71
2023/10/14 07:08:49;;;;;;;11.00;8.60;;;20.80;99.90;;;;;;5001759;28;20172;-72
2023/10/14 07:11:15;;;;;;;11.57;9.30;;;20.80;99.90;;;;;;5001273;28;20426;-71
2023/10/14 07:13:42;;;;;;;8.33;6.80;;;20.80;99.90;;;;;;5002876;28;20525;-71
2023/10/14 07:16:08;;;;;;;9.50;8.00;;;20.90;99.90;;;;;;5001178;28;20502;-71
2023/10/14 07:18:38;;;;;;;7.87;6.93;;;21.00;99.90;;;;;;5001069;28;20411;-71
2023/10/14 07:21:08;;;;;;;7.67;5.53;;;21.10;99.90;;;;;;4985029;28;20805;-72
2023/10/14 07:23:34;;;;;;;12.57;5.63;;;21.40;99.90;;;;;;5002922;28;20831;-71
2023/10/14 07:26:13;;;;;;;6.07;4.53;;;21.50;99.90;;;;;;4985002;28;20534;-71
2023/10/14 07:28:43;;;;;;;5.43;4.83;;;21.70;99.90;;;;;;5003384;28;20253;-70
2023/10/14 07:31:12;;;;;;;7.30;4.23;;;21.70;99.90;;;;;;5001641;28;20854;-71
2023/10/14 07:33:39;;;;;;;8.77;4.70;;;21.60;99.90;;;;;;5002725;28;20430;-71
2023/10/14 07:36:06;;;;;;;5.83;4.37;;;21.60;99.90;;;;;;5001125;28;20417;-72
2023/10/14 07:38:34;;;;;;;6.97;4.32;;;21.40;99.90;;;;;;4984270;28;20881;-72
2023/10/14 07:41:01;;;;;;;5.82;3.78;;;21.50;99.90;;;;;;4984427;28;20422;-71
2023/10/14 07:43:27;;;;;;;6.10;3.93;;;21.60;99.90;;;;;;5001007;28;20211;-71
2023/10/14 07:45:53;;;;;;;6.87;3.80;;;21.60;99.90;;;;;;5001169;28;20418;-71
2023/10/14 07:48:19;;;;;;;5.70;3.80;;;21.40;99.90;;;;;;5001126;28;20176;-70
2023/10/14 07:50:47;;;;;;;6.00;4.10;;;21.20;99.90;;;;;;5001220;28;20211;-69
2023/10/14 07:53:15;;;;;;;7.97;3.40;;;21.10;99.90;;;;;;5000806;28;20953;-70
2023/10/14 07:55:43;;;;;;;8.80;4.13;;;21.30;99.90;;;;;;5002842;28;20446;-71
2023/10/14 07:58:10;;;;;;;5.30;3.17;;;21.50;99.90;;;;;;5002109;28;20455;-70
2023/10/14 08:00:49;;;;;;;5.70;4.00;;;21.50;99.90;;;;;;5002440;28;20814;-67
2023/10/14 08:03:16;;;;;;;8.37;3.80;;;21.60;99.90;;;;;;5001650;28;20435;-69
2023/10/14 08:05:44;;;;;;;6.07;3.70;;;21.50;99.90;;;;;;5002543;28;20419;-70
2023/10/14 08:08:11;;;;;;;5.10;3.40;;;21.40;99.90;;;;;;4984956;28;20910;-70
2023/10/14 08:10:41;;;;;;;6.30;3.63;;;21.40;99.90;;;;;;4987004;28;20505;-72
2023/10/14 08:13:08;;;;;;;5.93;3.40;;;21.20;99.90;;;;;;5004428;28;20449;-70
2023/10/14 08:15:35;;;;;;;6.07;3.57;;;21.40;99.90;;;;;;5004851;28;20411;-71
2023/10/14 08:18:04;;;;;;;5.30;3.50;;;21.40;99.90;;;;;;4988476;28;20541;-71
2023/10/14 08:20:33;;;;;;;7.37;4.10;;;21.60;99.90;;;;;;4988382;28;20502;-70
2023/10/14 08:22:59;;;;;;;5.00;3.50;;;21.60;99.90;;;;;;5004349;28;20569;-73
2023/10/14 08:25:26;;;;;;;5.93;3.80;;;21.00;99.90;;;;;;4988389;28;20520;-71
2023/10/14 08:27:53;;;;;;;4.30;2.57;;;20.80;99.90;;;;;;5004432;28;20804;-72
2023/10/14 08:30:19;;;;;;;4.23;2.23;;;20.70;99.90;;;;;;4987998;28;20642;-71
2023/10/14 08:32:46;;;;;;;3.57;2.50;;;20.50;99.90;;;;;;4971751;28;20851;-70
2023/10/14 08:35:17;;;;;;;3.40;2.07;;;20.40;99.90;;;;;;5004104;28;20421;-70
2023/10/14 08:37:50;;;;;;;4.40;2.57;;;20.40;99.90;;;;;;5003959;28;21212;-71
2023/10/14 08:40:25;;;;;;;3.83;2.00;;;20.50;99.90;;;;;;5005526;28;20411;-72
2023/10/14 08:42:55;;;;;;;2.73;2.10;;;20.70;99.90;;;;;;5004368;28;21224;-73
2023/10/14 08:45:22;;;;;;;3.40;2.80;;;20.50;99.90;;;;;;4971765;28;20415;-71
2023/10/14 08:47:54;;;;;;;4.33;2.30;;;20.50;99.90;;;;;;5004223;28;20438;-70
2023/10/14 08:50:24;;;;;;;5.40;2.50;;;20.60;99.90;;;;;;5004316;28;20451;-71
2023/10/14 08:52:51;;;;;;;6.37;2.53;;;20.60;99.90;;;;;;4987525;28;20474;-69
2023/10/14 08:55:21;;;;;;;3.20;2.27;;;20.70;99.90;;;;;;5005801;28;20480;-70
2023/10/14 08:57:48;;;;;;;3.90;2.10;;;20.70;99.90;;;;;;5004343;28;20571;-71
2023/10/14 09:00:19;;;;;;;3.23;2.33;;;21.10;99.90;;;;;;5004022;28;20430;-71
2023/10/14 09:02:49;;;;;;;4.10;2.90;;;21.30;99.90;;;;;;5005731;28;20434;-71
2023/10/14 09:05:16;;;;;;;3.20;2.10;;;21.50;99.90;;;;;;5004675;28;20414;-71
2023/10/14 09:07:46;;;;;;;3.90;2.50;;;21.80;99.90;;;;;;5005657;28;20458;-72
2023/10/14 09:10:12;;;;;;;4.27;2.50;;;21.80;99.90;;;;;;5004373;28;20426;-73
2023/10/14 09:12:39;;;;;;;2.80;1.90;;;22.00;99.90;;;;;;5003767;28;20972;-70
2023/10/14 09:15:05;;;;;;;5.10;2.60;;;21.90;99.90;;;;;;5005520;28;20789;-69
2023/10/14 09:17:31;;;;;;;2.70;1.50;;;21.50;99.90;;;;;;5005156;28;20494;-71
2023/10/14 09:19:57;;;;;;;1.37;0.80;;;20.30;99.90;;;;;;5005356;28;20520;-70
2023/10/14 09:22:27;;;;;;;1.30;1.17;;;19.30;99.90;;;;;;5004386;28;20211;-72
2023/10/14 09:24:58;;;;;;;1.60;1.10;;;18.80;99.90;;;;;;4987672;28;20230;-71
2023/10/14 09:27:31;;;;;;;1.53;0.93;;;18.70;99.90;;;;;;5004259;28;20917;-71
2023/10/14 09:29:58;;;;;;;8.53;1.70;;;18.40;99.90;;;;;;5005486;28;20425;-72
2023/10/14 09:32:24;;;;;;;3.80;1.50;;;18.20;99.90;;;;;;5003537;28;20438;-71
2023/10/14 09:34:51;;;;;;;1.53;1.23;;;17.90;99.90;;;;;;4970855;28;20453;-71
2023/10/14 09:37:17;;;;;;;1.17;1.07;;;17.70;99.90;;;;;;4970682;28;20824;-71
2023/10/14 09:39:48;;;;;;;1.30;1.20;;;17.40;99.90;;;;;;5003193;28;20415;-70
2023/10/14 09:42:18;;;;;;;1.37;1.27;;;17.30;99.90;;;;;;5002906;28;20431;-70
2023/10/14 09:44:45;;;;;;;3.57;1.60;;;17.30;99.90;;;;;;5004854;28;20446;-69
2023/10/14 09:47:14;;;;;;;1.90;1.47;;;17.40;99.90;;;;;;5002620;28;20493;-70
2023/10/14 09:49:43;;;;;;;3.00;2.10;;;17.50;99.90;;;;;;5004645;28;20577;-69
2023/10/14 09:52:14;;;;;;;1.67;1.50;;;17.70;99.90;;;;;;4986935;28;20458;-72
2023/10/14 09:54:41;;;;;;;2.00;1.33;;;17.90;99.90;;;;;;4971390;28;21020;-69
2023/10/14 09:57:10;;;;;;;2.10;1.90;;;17.90;99.90;;;;;;5003083;28;20539;-72
2023/10/14 09:59:40;;;;;;;1.80;1.60;;;18.00;99.90;;;;;;5002603;28;20477;-71
2023/10/14 10:02:09;;;;;;;1.20;1.10;;;17.90;99.90;;;;;;5004235;28;20435;-72
2023/10/14 10:04:40;;;;;;;1.63;1.53;;;17.80;99.90;;;;;;5004306;28;20434;-71
2023/10/14 10:07:24;;;;;;;2.13;1.40;;;18.00;99.90;;;;;;5002951;28;20514;-71
2023/10/14 10:10:10;;;;;;;1.33;1.23;;;18.20;99.90;;;;;;5002722;28;20509;-70
2023/10/14 10:12:38;;;;;;;1.43;1.30;;;18.40;99.90;;;;;;5004429;28;20429;-72
2023/10/14 10:15:06;;;;;;;1.20;0.70;;;18.60;99.90;;;;;;4986416;28;20426;-70
2023/10/14 10:17:38;;;;;;;0.90;0.80;;;18.50;99.90;;;;;;5004136;28;20965;-72
2023/10/14 10:20:16;;;;;;;2.27;1.33;;;18.50;99.90;;;;;;5004041;28;20423;-71
2023/10/14 10:22:50;;;;;;;1.50;1.13;;;18.50;99.90;;;;;;5003631;28;20485;-72
2023/10/14 10:25:17;;;;;;;1.13;1.03;;;18.60;99.90;;;;;;5002222;28;20503;-74
2023/10/14 10:27:47;;;;;;;1.30;1.10;;;18.40;99.90;;;;;;5002114;28;20434;-73
2023/10/14 10:30:14;;;;;;;1.57;0.93;;;18.50;99.90;;;;;;5003982;28;20870;-71
2023/10/14 10:32:43;;;;;;;1.20;1.00;;;18.40;99.90;;;;;;5001443;28;20516;-69
2023/10/14 10:35:13;;;;;;;0.97;0.87;;;18.40;99.90;;;;;;5003485;28;20426;-70
2023/10/14 10:37:55;;;;;;;1.30;1.00;;;18.30;99.90;;;;;;5003489;28;20450;-74
2023/10/14 10:40:28;;;;;;;1.00;0.90;;;18.30;99.90;;;;;;5001901;28;20411;-69
2023/10/14 10:43:09;;;;;;;1.37;1.27;;;18.50;99.90;;;;;;5001541;28;20810;-69
2023/10/14 10:45:36;;;;;;;2.23;1.27;;;18.60;99.90;;;;;;5003714;28;20797;-71
2023/10/14 10:48:06;;;;;;;1.37;0.90;;;18.60;99.90;;;;;;5002187;28;20505;-71
2023/10/14 10:50:37;;;;;;;1.20;0.90;;;18.40;99.90;;;;;;5018062;28;20892;-70
2023/10/14 10:53:05;;;;;;;2.30;0.90;;;18.40;99.90;;;;;;5003256;28;20868;-70
2023/10/14 10:55:31;;;;;;;1.67;1.13;;;18.30;99.90;;;;;;5003237;28;20956;-72
2023/10/14 10:58:01;;;;;;;1.67;1.17;;;18.30;99.90;;;;;;5002933;28;20498;-70
2023/10/14 11:00:30;;;;;;;1.20;1.10;;;18.40;99.90;;;;;;5003319;28;20654;-69
2023/10/14 11:02:56;;;;;;;2.83;1.30;;;18.20;99.90;;;;;;5001387;28;20532;-70
2023/10/14 11:05:24;;;;;;;0.90;0.80;;;18.30;99.90;;;;;;5001503;28;20419;-71
2023/10/14 11:07:52;;;;;;;1.10;1.00;;;18.40;99.90;;;;;;5001648;28;20427;-70
2023/10/14 11:10:27;;;;;;;1.60;1.20;;;18.40;99.90;;;;;;5003485;28;20921;-71
2023/10/14 11:12:57;;;;;;;0.90;0.73;;;18.20;99.90;;;;;;4970142;28;21014;-70
2023/10/14 11:15:25;;;;;;;2.40;0.80;;;17.90;99.90;;;;;;4985350;28;20454;-73
2023/10/14 11:17:58;;;;;;;1.73;0.80;;;17.70;99.90;;;;;;5002324;28;20477;-71
2023/10/14 11:20:36;;;;;;;1.00;0.90;;;17.50;99.90;;;;;;5004576;28;20418;-71
2023/10/14 11:23:12;;;;;;;1.53;1.03;;;17.50;99.90;;;;;;5001903;28;20427;-73
2023/10/14 11:25:41;;;;;;;2.13;1.10;;;17.40;99.90;;;;;;4986120;28;20461;-73
2023/10/14 11:28:10;;;;;;;2.73;1.10;;;17.40;99.90;;;;;;5001364;28;20406;-71
2023/10/14 11:30:45;;;;;;;1.10;0.90;;;17.70;99.90;;;;;;5001752;28;20433;-73
2023/10/14 11:33:12;;;;;;;1.80;1.07;;;17.50;99.90;;;;;;4985450;28;20808;-72
2023/10/14 11:35:38;;;;;;;1.63;1.00;;;17.60;99.90;;;;;;5001617;28;20422;-69
2023/10/14 11:38:13;;;;;;;3.33;0.90;;;17.60;99.90;;;;;;5001770;28;20467;-71
2023/10/14 11:40:45;;;;;;;1.50;1.10;;;17.70;99.90;;;;;;4970165;28;20493;-74
2023/10/14 11:43:11;;;;;;;1.27;0.90;;;17.70;99.90;;;;;;5001445;28;20805;-73
2023/10/14 11:45:43;;;;;;;2.40;1.20;;;17.70;99.90;;;;;;4987533;28;20940;-74
2023/10/14 11:48:36;;;;;;;1.30;1.03;;;17.80;99.90;;;;;;5005282;28;20454;-73
2023/10/14 11:51:03;;;;;;;2.07;1.27;;;18.10;99.90;;;;;;5001332;28;20435;-71
2023/10/14 11:53:32;;;;;;;1.17;1.07;;;18.10;99.90;;;;;;5004796;28;20521;-73
2023/10/14 11:56:00;;;;;;;2.10;1.00;;;17.90;99.90;;;;;;4989543;28;20826;-70
2023/10/14 11:58:35;;;;;;;2.07;1.10;;;17.50;99.90;;;;;;5005111;28;20481;-70
2023/10/14 12:01:00;;;;;;;1.20;1.00;;;17.30;99.90;;;;;;5005040;28;20957;-70
2023/10/14 12:03:27;;;;;;;1.57;1.27;;;17.10;99.90;;;;;;5006359;28;20583;-71
2023/10/14 12:05:57;;;;;;;2.07;1.17;;;17.00;99.90;;;;;;5004864;28;20545;-70
2023/10/14 12:08:28;;;;;;;1.60;1.10;;;16.90;99.90;;;;;;5004734;28;20532;-70
2023/10/14 12:10:54;;;;;;;1.30;0.93;;;17.10;99.90;;;;;;4989349;28;20422;-71
2023/10/14 12:13:24;;;;;;;1.97;1.20;;;17.10;99.90;;;;;;5006200;28;20504;-70
2023/10/14 12:15:50;;;;;;;1.97;1.53;;;17.00;99.90;;;;;;5006508;28;20818;-71
2023/10/14 12:18:16;;;;;;;2.33;1.20;;;17.10;99.90;;;;;;4988679;28;20469;-71
2023/10/14 12:20:46;;;;;;;2.17;1.40;;;17.20;99.90;;;;;;5004980;28;20422;-72
2023/10/14 12:23:18;;;;;;;1.10;0.90;;;17.20;99.90;;;;;;5004501;28;20474;-72
2023/10/14 12:25:46;;;;;;;1.83;1.07;;;17.10;99.90;;;;;;5004664;28;20497;-71
2023/10/14 12:28:17;;;;;;;1.63;1.27;;;17.30;99.90;;;;;;4988347;28;20422;-71
2023/10/14 12:30:46;;;;;;;8.83;6.60;;;17.20;99.90;;;;;;4989273;28;20483;-72
2023/10/14 12:33:19;;;;;;;2.80;2.00;;;17.30;99.90;;;;;;4972620;28;20823;-71
2023/10/14 12:35:45;;;;;;;4.07;3.30;;;17.40;99.90;;;;;;4973673;28;20431;-70
2023/10/14 12:38:15;;;;;;;5.73;2.90;;;17.50;99.90;;;;;;5004754;28;20713;-72
2023/10/14 12:40:45;;;;;;;5.53;2.70;;;17.50;99.90;;;;;;5005303;28;20415;-73
2023/10/14 12:43:12;;;;;;;3.63;2.23;;;17.60;99.90;;;;;;5004419;28;20492;-72
2023/10/14 12:45:38;;;;;;;4.33;1.60;;;17.80;99.90;;;;;;5004291;28;20423;-69
2023/10/14 12:48:10;;;;;;;2.30;0.70;;;17.90;99.90;;;;;;4971776;28;20523;-74
2023/10/14 12:50:40;;;;;;;1.30;1.00;;;17.60;99.90;;;;;;4988704;28;20442;-72
2023/10/14 12:53:10;;;;;;;1.13;0.83;;;17.40;99.90;;;;;;4988061;28;20474;-73
2023/10/14 12:55:36;;;;;;;1.10;1.00;;;17.30;99.90;;;;;;4987605;28;20422;-72
2023/10/14 12:58:03;;;;;;;1.13;1.03;;;16.90;99.90;;;;;;5005728;28;20547;-72
2023/10/14 13:00:29;;;;;;;1.17;0.80;;;16.80;99.90;;;;;;5005203;28;20437;-70
2023/10/14 13:02:56;;;;;;;2.90;0.97;;;16.80;99.90;;;;;;4987696;28;20565;-71
2023/10/14 13:05:25;;;;;;;0.90;0.60;;;16.60;99.90;;;;;;4987932;28;20418;-70
2023/10/14 13:07:52;;;;;;;1.20;1.10;;;16.40;99.90;;;;;;5004217;28;20423;-71
2023/10/14 13:10:18;;;;;;;2.30;1.20;;;16.50;99.90;;;;;;4988119;28;20438;-70
2023/10/14 13:12:55;;;;;;;1.97;1.20;;;16.60;99.90;;;;;;5003828;28;20541;-71
2023/10/14 13:15:27;;;;;;;1.73;0.90;;;16.60;99.90;;;;;;5003443;28;20961;-72
2023/10/14 13:18:00;;;;;;;2.03;1.00;;;16.80;99.90;;;;;;5005013;28;20463;-72
2023/10/14 13:20:31;;;;;;;1.57;1.10;;;16.90;99.90;;;;;;5004014;28;20452;-72
2023/10/14 13:23:04;;;;;;;1.30;0.80;;;17.00;99.90;;;;;;4987166;28;20819;-71
2023/10/14 13:25:36;;;;;;;1.30;0.90;;;16.80;99.90;;;;;;4987476;28;20423;-69
2023/10/14 13:28:03;;;;;;;1.20;0.70;;;16.80;99.90;;;;;;5005104;28;20415;-68
2023/10/14 13:30:29;;;;;;;1.07;0.80;;;16.80;99.90;;;;;;5003803;28;20429;-70